sensor_id;sensor_type;location;lat;lon;timestamp;P1;durP1;ratioP1;P2;durP2;ratioP2
10469;SDS011;5282;47.052;15.458;2022-10-17T00:00:57;33.67;;;28.60;;
10469;SDS011;5282;47.052;15.458;2022-10-17T00:03:24;33.17;;;28.10;;
10469;SDS011;5282;47.052;15.458;2022-10-17T00:05:51;33.93;;;28.73;;
10469;SDS011;5282;47.052;15.458;2022-10-17T00:08:18;35.47;;;29.47;;
10469;SDS011;5282;47.052;15.458;2022-10-17T00:10:45;35.00;;;29.47;;
10469;SDS011;5282;47.052;15.458;2022-10-17T00:13:22;31.63;;;28.20;;
10469;SDS011;5282;47.052;15.458;2022-10-17T00:15:49;32.10;;;28.20;;
10469;SDS011;5282;47.052;15.458;2022-10-17T00:18:16;35.50;;;29.40;;
10469;SDS011;5282;47.052;15.458;2022-10-17T00:20:43;38.40;;;27.73;;
10469;SDS011;5282;47.052;15.458;2022-10-17T00:23:10;31.73;;;28.10;;
10469;SDS011;5282;47.052;15.458;2022-10-17T00:25:37;29.17;;;26.10;;
10469;SDS011;5282;47.052;15.458;2022-10-17T00:28:04;30.10;;;26.90;;
10469;SDS011;5282;47.052;15.458;2022-10-17T00:30:33;27.57;;;24.53;;
10469;SDS011;5282;47.052;15.458;2022-10-17T00:33:00;29.00;;;26.00;;
10469;SDS011;5282;47.052;15.458;2022-10-17T00:35:26;27.73;;;24.73;;
10469;SDS011;5282;47.052;15.458;2022-10-17T00:37:53;30.80;;;26.90;;
10469;SDS011;5282;47.052;15.458;2022-10-17T00:40:20;29.20;;;26.10;;
10469;SDS011;5282;47.052;15.458;2022-10-17T00:42:47;30.87;;;27.73;;
10469;SDS011;5282;47.052;15.458;2022-10-17T00:45:19;32.70;;;27.83;;
10469;SDS011;5282;47.052;15.458;2022-10-17T00:47:50;31.73;;;28.20;;
10469;SDS011;5282;47.052;15.458;2022-10-17T00:50:20;34.07;;;28.20;;
10469;SDS011;5282;47.052;15.458;2022-10-17T00:52:47;29.93;;;26.73;;
10469;SDS011;5282;47.052;15.458;2022-10-17T00:55:15;32.10;;;27.47;;
10469;SDS011;5282;47.052;15.458;2022-10-17T00:57:46;32.00;;;28.50;;
10469;SDS011;5282;47.052;15.458;2022-10-17T01:00:14;36.33;;;29.67;;
10469;SDS011;5282;47.052;15.458;2022-10-17T01:02:42;34.07;;;28.47;;
10469;SDS011;5282;47.052;15.458;2022-10-17T01:05:10;31.20;;;27.83;;
10469;SDS011;5282;47.052;15.458;2022-10-17T01:07:38;34.93;;;29.37;;
10469;SDS011;5282;47.052;15.458;2022-10-17T01:10:10;38.00;;;30.37;;
10469;SDS011;5282;47.052;15.458;2022-10-17T01:12:48;40.03;;;30.80;;
10469;SDS011;5282;47.052;15.458;2022-10-17T01:15:25;38.17;;;31.33;;
10469;SDS011;5282;47.052;15.458;2022-10-17T01:18:07;34.53;;;29.43;;
10469;SDS011;5282;47.052;15.458;2022-10-17T01:20:55;44.80;;;31.27;;
10469;SDS011;5282;47.052;15.458;2022-10-17T01:23:36;37.73;;;30.47;;
10469;SDS011;5282;47.052;15.458;2022-10-17T01:26:35;52.63;;;30.43;;
10469;SDS011;5282;47.052;15.458;2022-10-17T01:29:19;73.40;;;30.33;;
10469;SDS011;5282;47.052;15.458;2022-10-17T01:31:58;92.20;;;32.87;;
10469;SDS011;5282;47.052;15.458;2022-10-17T01:34:30;53.87;;;30.90;;
10469;SDS011;5282;47.052;15.458;2022-10-17T01:37:01;69.10;;;32.70;;
10469;SDS011;5282;47.052;15.458;2022-10-17T01:39:36;39.70;;;31.67;;
10469;SDS011;5282;47.052;15.458;2022-10-17T01:42:09;53.30;;;31.20;;
10469;SDS011;5282;47.052;15.458;2022-10-17T01:44:43;53.93;;;31.80;;
10469;SDS011;5282;47.052;15.458;2022-10-17T01:47:17;39.43;;;31.43;;
10469;SDS011;5282;47.052;15.458;2022-10-17T01:49:48;36.43;;;29.77;;
10469;SDS011;5282;47.052;15.458;2022-10-17T01:52:22;51.17;;;28.60;;
10469;SDS011;5282;47.052;15.458;2022-10-17T01:54:53;34.37;;;29.13;;
10469;SDS011;5282;47.052;15.458;2022-10-17T01:57:25;37.70;;;26.93;;
10469;SDS011;5282;47.052;15.458;2022-10-17T01:59:55;29.57;;;26.40;;
10469;SDS011;5282;47.052;15.458;2022-10-17T02:02:24;30.23;;;26.90;;
10469;SDS011;5282;47.052;15.458;2022-10-17T02:04:55;29.40;;;26.33;;
10469;SDS011;5282;47.052;15.458;2022-10-17T02:07:23;31.13;;;27.83;;
10469;SDS011;5282;47.052;15.458;2022-10-17T02:09:50;29.20;;;26.10;;
10469;SDS011;5282;47.052;15.458;2022-10-17T02:12:27;29.53;;;26.43;;
10469;SDS011;5282;47.052;15.458;2022-10-17T02:15:18;31.50;;;26.63;;
10469;SDS011;5282;47.052;15.458;2022-10-17T02:17:57;80.87;;;28.77;;
10469;SDS011;5282;47.052;15.458;2022-10-17T02:20:39;93.90;;;27.67;;
10469;SDS011;5282;47.052;15.458;2022-10-17T02:23:16;106.80;;;24.70;;
10469;SDS011;5282;47.052;15.458;2022-10-17T02:25:50;79.90;;;25.93;;
10469;SDS011;5282;47.052;15.458;2022-10-17T02:28:23;34.80;;;22.83;;
10469;SDS011;5282;47.052;15.458;2022-10-17T02:30:57;56.57;;;26.07;;
10469;SDS011;5282;47.052;15.458;2022-10-17T02:33:29;48.87;;;25.50;;
10469;SDS011;5282;47.052;15.458;2022-10-17T02:36:01;40.07;;;24.37;;
10469;SDS011;5282;47.052;15.458;2022-10-17T02:38:33;29.33;;;23.97;;
10469;SDS011;5282;47.052;15.458;2022-10-17T02:41:00;31.27;;;24.23;;
10469;SDS011;5282;47.052;15.458;2022-10-17T02:43:29;28.03;;;24.20;;
10469;SDS011;5282;47.052;15.458;2022-10-17T02:45:56;26.83;;;24.23;;
10469;SDS011;5282;47.052;15.458;2022-10-17T02:48:24;26.03;;;23.43;;
10469;SDS011;5282;47.052;15.458;2022-10-17T02:51:01;27.63;;;24.63;;
10469;SDS011;5282;47.052;15.458;2022-10-17T02:53:35;26.07;;;23.57;;
10469;SDS011;5282;47.052;15.458;2022-10-17T02:56:07;29.97;;;23.27;;
10469;SDS011;5282;47.052;15.458;2022-10-17T02:58:40;25.90;;;23.53;;
10469;SDS011;5282;47.052;15.458;2022-10-17T03:01:11;26.53;;;23.73;;
10469;SDS011;5282;47.052;15.458;2022-10-17T03:03:39;27.37;;;24.30;;
10469;SDS011;5282;47.052;15.458;2022-10-17T03:06:07;25.63;;;23.23;;
10469;SDS011;5282;47.052;15.458;2022-10-17T03:08:34;24.57;;;22.33;;
10469;SDS011;5282;47.052;15.458;2022-10-17T03:11:01;24.40;;;22.27;;
10469;SDS011;5282;47.052;15.458;2022-10-17T03:13:28;23.87;;;21.70;;
10469;SDS011;5282;47.052;15.458;2022-10-17T03:15:55;23.73;;;21.53;;
10469;SDS011;5282;47.052;15.458;2022-10-17T03:18:23;23.50;;;21.40;;
10469;SDS011;5282;47.052;15.458;2022-10-17T03:20:50;24.23;;;22.03;;
10469;SDS011;5282;47.052;15.458;2022-10-17T03:23:18;23.97;;;21.77;;
10469;SDS011;5282;47.052;15.458;2022-10-17T03:25:45;24.50;;;21.93;;
10469;SDS011;5282;47.052;15.458;2022-10-17T03:28:12;63.77;;;23.57;;
10469;SDS011;5282;47.052;15.458;2022-10-17T03:30:38;31.07;;;23.67;;
10469;SDS011;5282;47.052;15.458;2022-10-17T03:33:05;100.13;;;24.73;;
10469;SDS011;5282;47.052;15.458;2022-10-17T03:35:32;68.87;;;24.13;;
10469;SDS011;5282;47.052;15.458;2022-10-17T03:37:59;52.43;;;23.53;;
10469;SDS011;5282;47.052;15.458;2022-10-17T03:40:27;83.53;;;24.63;;
10469;SDS011;5282;47.052;15.458;2022-10-17T03:42:54;42.07;;;22.67;;
10469;SDS011;5282;47.052;15.458;2022-10-17T03:45:21;27.33;;;22.30;;
10469;SDS011;5282;47.052;15.458;2022-10-17T03:47:48;37.50;;;21.93;;
10469;SDS011;5282;47.052;15.458;2022-10-17T03:50:15;24.67;;;21.70;;
10469;SDS011;5282;47.052;15.458;2022-10-17T03:52:45;22.80;;;20.80;;
10469;SDS011;5282;47.052;15.458;2022-10-17T03:55:12;22.40;;;20.50;;
10469;SDS011;5282;47.052;15.458;2022-10-17T03:57:40;23.17;;;21.10;;
10469;SDS011;5282;47.052;15.458;2022-10-17T04:00:08;22.50;;;20.50;;
10469;SDS011;5282;47.052;15.458;2022-10-17T04:02:40;22.33;;;20.33;;
10469;SDS011;5282;47.052;15.458;2022-10-17T04:05:09;23.00;;;20.90;;
10469;SDS011;5282;47.052;15.458;2022-10-17T04:07:35;22.27;;;20.33;;
10469;SDS011;5282;47.052;15.458;2022-10-17T04:10:03;21.80;;;19.93;;
10469;SDS011;5282;47.052;15.458;2022-10-17T04:12:30;21.93;;;20.03;;
10469;SDS011;5282;47.052;15.458;2022-10-17T04:14:58;22.93;;;20.77;;
10469;SDS011;5282;47.052;15.458;2022-10-17T04:17:25;22.43;;;20.30;;
10469;SDS011;5282;47.052;15.458;2022-10-17T04:19:52;22.37;;;20.13;;
10469;SDS011;5282;47.052;15.458;2022-10-17T04:22:18;23.37;;;21.03;;
10469;SDS011;5282;47.052;15.458;2022-10-17T04:24:45;23.37;;;21.17;;
10469;SDS011;5282;47.052;15.458;2022-10-17T04:27:14;22.60;;;20.30;;
10469;SDS011;5282;47.052;15.458;2022-10-17T04:29:41;23.30;;;20.83;;
10469;SDS011;5282;47.052;15.458;2022-10-17T04:32:10;22.63;;;20.53;;
10469;SDS011;5282;47.052;15.458;2022-10-17T04:34:38;21.87;;;19.87;;
10469;SDS011;5282;47.052;15.458;2022-10-17T04:37:06;22.93;;;20.73;;
10469;SDS011;5282;47.052;15.458;2022-10-17T04:39:33;24.10;;;20.73;;
10469;SDS011;5282;47.052;15.458;2022-10-17T04:42:00;22.80;;;20.60;;
10469;SDS011;5282;47.052;15.458;2022-10-17T04:44:27;23.93;;;21.57;;
10469;SDS011;5282;47.052;15.458;2022-10-17T04:46:55;23.83;;;21.33;;
10469;SDS011;5282;47.052;15.458;2022-10-17T04:49:23;25.03;;;22.27;;
10469;SDS011;5282;47.052;15.458;2022-10-17T04:51:50;24.47;;;21.50;;
10469;SDS011;5282;47.052;15.458;2022-10-17T04:54:17;24.00;;;21.53;;
10469;SDS011;5282;47.052;15.458;2022-10-17T04:56:47;23.40;;;21.00;;
10469;SDS011;5282;47.052;15.458;2022-10-17T04:59:14;26.13;;;22.17;;
10469;SDS011;5282;47.052;15.458;2022-10-17T05:01:41;23.17;;;20.90;;
10469;SDS011;5282;47.052;15.458;2022-10-17T05:04:08;26.23;;;21.07;;
10469;SDS011;5282;47.052;15.458;2022-10-17T05:06:36;23.80;;;21.50;;
10469;SDS011;5282;47.052;15.458;2022-10-17T05:09:03;25.37;;;22.73;;
10469;SDS011;5282;47.052;15.458;2022-10-17T05:11:30;26.90;;;21.60;;
10469;SDS011;5282;47.052;15.458;2022-10-17T05:13:57;26.60;;;21.87;;
10469;SDS011;5282;47.052;15.458;2022-10-17T05:16:26;24.97;;;22.30;;
10469;SDS011;5282;47.052;15.458;2022-10-17T05:18:54;25.77;;;23.37;;
10469;SDS011;5282;47.052;15.458;2022-10-17T05:21:23;23.77;;;21.20;;
10469;SDS011;5282;47.052;15.458;2022-10-17T05:23:53;24.83;;;21.90;;
10469;SDS011;5282;47.052;15.458;2022-10-17T05:26:21;23.97;;;21.67;;
10469;SDS011;5282;47.052;15.458;2022-10-17T05:28:48;25.07;;;22.03;;
10469;SDS011;5282;47.052;15.458;2022-10-17T05:31:16;24.10;;;21.50;;
10469;SDS011;5282;47.052;15.458;2022-10-17T05:33:43;24.00;;;21.63;;
10469;SDS011;5282;47.052;15.458;2022-10-17T05:36:10;24.10;;;20.90;;
10469;SDS011;5282;47.052;15.458;2022-10-17T05:38:37;24.37;;;21.80;;
10469;SDS011;5282;47.052;15.458;2022-10-17T05:41:05;23.73;;;21.33;;
10469;SDS011;5282;47.052;15.458;2022-10-17T05:43:32;30.63;;;21.67;;
10469;SDS011;5282;47.052;15.458;2022-10-17T05:46:01;24.03;;;21.33;;
10469;SDS011;5282;47.052;15.458;2022-10-17T05:48:29;26.00;;;22.27;;
10469;SDS011;5282;47.052;15.458;2022-10-17T05:50:56;25.13;;;22.50;;
10469;SDS011;5282;47.052;15.458;2022-10-17T05:53:25;25.20;;;22.23;;
10469;SDS011;5282;47.052;15.458;2022-10-17T05:55:55;25.17;;;22.43;;
10469;SDS011;5282;47.052;15.458;2022-10-17T05:58:25;25.83;;;22.60;;
10469;SDS011;5282;47.052;15.458;2022-10-17T06:00:56;25.90;;;23.20;;
10469;SDS011;5282;47.052;15.458;2022-10-17T06:03:24;25.23;;;22.67;;
10469;SDS011;5282;47.052;15.458;2022-10-17T06:05:51;25.40;;;22.13;;
10469;SDS011;5282;47.052;15.458;2022-10-17T06:08:19;25.93;;;22.53;;
10469;SDS011;5282;47.052;15.458;2022-10-17T06:10:47;23.47;;;21.07;;
10469;SDS011;5282;47.052;15.458;2022-10-17T06:13:14;25.20;;;21.30;;
10469;SDS011;5282;47.052;15.458;2022-10-17T06:15:43;24.30;;;21.90;;
10469;SDS011;5282;47.052;15.458;2022-10-17T06:18:10;25.60;;;23.10;;
10469;SDS011;5282;47.052;15.458;2022-10-17T06:20:37;24.73;;;22.27;;
10469;SDS011;5282;47.052;15.458;2022-10-17T06:23:04;24.37;;;21.90;;
10469;SDS011;5282;47.052;15.458;2022-10-17T06:25:31;24.20;;;21.90;;
10469;SDS011;5282;47.052;15.458;2022-10-17T06:27:59;24.47;;;21.90;;
10469;SDS011;5282;47.052;15.458;2022-10-17T06:30:26;26.27;;;23.47;;
10469;SDS011;5282;47.052;15.458;2022-10-17T06:32:55;26.63;;;23.80;;
10469;SDS011;5282;47.052;15.458;2022-10-17T06:35:22;26.03;;;23.23;;
10469;SDS011;5282;47.052;15.458;2022-10-17T06:37:48;26.40;;;23.67;;
10469;SDS011;5282;47.052;15.458;2022-10-17T06:40:15;26.53;;;23.87;;
10469;SDS011;5282;47.052;15.458;2022-10-17T06:42:42;26.07;;;23.03;;
10469;SDS011;5282;47.052;15.458;2022-10-17T06:45:09;27.30;;;24.50;;
10469;SDS011;5282;47.052;15.458;2022-10-17T06:47:36;28.27;;;23.60;;
10469;SDS011;5282;47.052;15.458;2022-10-17T06:50:05;27.67;;;24.67;;
10469;SDS011;5282;47.052;15.458;2022-10-17T06:52:33;27.00;;;24.00;;
10469;SDS011;5282;47.052;15.458;2022-10-17T06:55:00;25.93;;;23.10;;
10469;SDS011;5282;47.052;15.458;2022-10-17T06:57:26;27.83;;;24.83;;
10469;SDS011;5282;47.052;15.458;2022-10-17T06:59:53;28.53;;;25.50;;
10469;SDS011;5282;47.052;15.458;2022-10-17T07:02:21;27.83;;;25.03;;
10469;SDS011;5282;47.052;15.458;2022-10-17T07:04:49;27.13;;;24.33;;
10469;SDS011;5282;47.052;15.458;2022-10-17T07:07:20;26.20;;;23.40;;
10469;SDS011;5282;47.052;15.458;2022-10-17T07:09:46;25.87;;;23.20;;
10469;SDS011;5282;47.052;15.458;2022-10-17T07:12:13;24.97;;;22.67;;
10469;SDS011;5282;47.052;15.458;2022-10-17T07:14:40;25.43;;;22.93;;
10469;SDS011;5282;47.052;15.458;2022-10-17T07:17:07;24.63;;;22.20;;
10469;SDS011;5282;47.052;15.458;2022-10-17T07:19:35;24.97;;;22.53;;
10469;SDS011;5282;47.052;15.458;2022-10-17T07:22:01;25.60;;;23.00;;
10469;SDS011;5282;47.052;15.458;2022-10-17T07:24:29;25.50;;;23.00;;
10469;SDS011;5282;47.052;15.458;2022-10-17T07:26:56;25.10;;;22.53;;
10469;SDS011;5282;47.052;15.458;2022-10-17T07:29:23;26.47;;;23.87;;
10469;SDS011;5282;47.052;15.458;2022-10-17T07:31:53;25.70;;;23.20;;
10469;SDS011;5282;47.052;15.458;2022-10-17T07:34:21;25.70;;;23.23;;
10469;SDS011;5282;47.052;15.458;2022-10-17T07:36:51;26.37;;;23.63;;
10469;SDS011;5282;47.052;15.458;2022-10-17T07:39:18;26.13;;;23.63;;
10469;SDS011;5282;47.052;15.458;2022-10-17T07:41:46;26.50;;;23.83;;
10469;SDS011;5282;47.052;15.458;2022-10-17T07:44:15;24.40;;;22.10;;
10469;SDS011;5282;47.052;15.458;2022-10-17T07:46:42;25.53;;;22.77;;
10469;SDS011;5282;47.052;15.458;2022-10-17T07:49:08;25.33;;;22.80;;
10469;SDS011;5282;47.052;15.458;2022-10-17T07:51:35;26.07;;;22.97;;
10469;SDS011;5282;47.052;15.458;2022-10-17T07:54:03;25.17;;;22.57;;
10469;SDS011;5282;47.052;15.458;2022-10-17T07:56:31;23.73;;;21.43;;
10469;SDS011;5282;47.052;15.458;2022-10-17T07:58:59;26.83;;;22.37;;
10469;SDS011;5282;47.052;15.458;2022-10-17T08:01:26;24.43;;;21.97;;
10469;SDS011;5282;47.052;15.458;2022-10-17T08:03:53;26.93;;;22.17;;
10469;SDS011;5282;47.052;15.458;2022-10-17T08:06:20;26.57;;;22.50;;
10469;SDS011;5282;47.052;15.458;2022-10-17T08:08:47;24.17;;;21.87;;
10469;SDS011;5282;47.052;15.458;2022-10-17T08:11:14;26.13;;;21.90;;
10469;SDS011;5282;47.052;15.458;2022-10-17T08:13:41;24.73;;;22.03;;
10469;SDS011;5282;47.052;15.458;2022-10-17T08:16:10;25.07;;;22.23;;
10469;SDS011;5282;47.052;15.458;2022-10-17T08:18:38;24.43;;;21.57;;
10469;SDS011;5282;47.052;15.458;2022-10-17T08:21:06;23.93;;;20.80;;
10469;SDS011;5282;47.052;15.458;2022-10-17T08:23:34;23.70;;;21.43;;
10469;SDS011;5282;47.052;15.458;2022-10-17T08:26:02;22.77;;;20.37;;
10469;SDS011;5282;47.052;15.458;2022-10-17T08:28:33;23.87;;;20.90;;
10469;SDS011;5282;47.052;15.458;2022-10-17T08:31:03;28.37;;;21.90;;
10469;SDS011;5282;47.052;15.458;2022-10-17T08:33:32;21.27;;;19.27;;
10469;SDS011;5282;47.052;15.458;2022-10-17T08:36:01;24.47;;;20.37;;
10469;SDS011;5282;47.052;15.458;2022-10-17T08:38:29;20.73;;;18.63;;
10469;SDS011;5282;47.052;15.458;2022-10-17T08:40:59;23.50;;;18.80;;
10469;SDS011;5282;47.052;15.458;2022-10-17T08:43:31;24.30;;;19.90;;
10469;SDS011;5282;47.052;15.458;2022-10-17T08:46:07;22.17;;;19.33;;
10469;SDS011;5282;47.052;15.458;2022-10-17T08:48:37;24.17;;;19.50;;
10469;SDS011;5282;47.052;15.458;2022-10-17T08:51:09;21.83;;;18.57;;
10469;SDS011;5282;47.052;15.458;2022-10-17T08:53:42;20.13;;;18.00;;
10469;SDS011;5282;47.052;15.458;2022-10-17T08:56:15;23.07;;;18.57;;
10469;SDS011;5282;47.052;15.458;2022-10-17T08:58:44;20.70;;;18.13;;
10469;SDS011;5282;47.052;15.458;2022-10-17T09:01:13;22.27;;;18.33;;
10469;SDS011;5282;47.052;15.458;2022-10-17T09:04:04;19.93;;;18.03;;
10469;SDS011;5282;47.052;15.458;2022-10-17T09:06:47;21.53;;;19.30;;
10469;SDS011;5282;47.052;15.458;2022-10-17T09:09:21;21.53;;;19.23;;
10469;SDS011;5282;47.052;15.458;2022-10-17T09:12:01;22.90;;;19.23;;
10469;SDS011;5282;47.052;15.458;2022-10-17T09:14:49;19.80;;;17.73;;
10469;SDS011;5282;47.052;15.458;2022-10-17T09:17:31;20.10;;;17.60;;
10469;SDS011;5282;47.052;15.458;2022-10-17T09:20:08;21.90;;;19.80;;
10469;SDS011;5282;47.052;15.458;2022-10-17T09:22:38;21.27;;;19.00;;
10469;SDS011;5282;47.052;15.458;2022-10-17T09:25:12;20.27;;;18.23;;
10469;SDS011;5282;47.052;15.458;2022-10-17T09:27:43;20.57;;;18.30;;
10469;SDS011;5282;47.052;15.458;2022-10-17T09:30:21;20.10;;;18.20;;
10469;SDS011;5282;47.052;15.458;2022-10-17T09:32:56;20.37;;;17.37;;
10469;SDS011;5282;47.052;15.458;2022-10-17T09:35:27;19.33;;;17.40;;
10469;SDS011;5282;47.052;15.458;2022-10-17T09:37:54;32.03;;;19.10;;
10469;SDS011;5282;47.052;15.458;2022-10-17T09:40:23;22.63;;;17.00;;
10469;SDS011;5282;47.052;15.458;2022-10-17T09:42:52;17.90;;;16.10;;
10469;SDS011;5282;47.052;15.458;2022-10-17T09:45:20;17.90;;;16.30;;
10469;SDS011;5282;47.052;15.458;2022-10-17T09:47:59;19.13;;;17.17;;
10469;SDS011;5282;47.052;15.458;2022-10-17T09:50:35;19.10;;;17.27;;
10469;SDS011;5282;47.052;15.458;2022-10-17T09:53:07;20.37;;;17.90;;
10469;SDS011;5282;47.052;15.458;2022-10-17T09:55:39;19.60;;;17.60;;
10469;SDS011;5282;47.052;15.458;2022-10-17T09:58:08;19.30;;;17.67;;
10469;SDS011;5282;47.052;15.458;2022-10-17T10:00:39;18.00;;;16.40;;
10469;SDS011;5282;47.052;15.458;2022-10-17T10:03:08;17.70;;;15.93;;
10469;SDS011;5282;47.052;15.458;2022-10-17T10:05:38;18.33;;;16.60;;
10469;SDS011;5282;47.052;15.458;2022-10-17T10:08:10;19.00;;;17.20;;
10469;SDS011;5282;47.052;15.458;2022-10-17T10:10:43;17.57;;;15.93;;
10469;SDS011;5282;47.052;15.458;2022-10-17T10:13:17;19.10;;;17.23;;
10469;SDS011;5282;47.052;15.458;2022-10-17T10:18:45;16.60;;;15.20;;
10469;SDS011;5282;47.052;15.458;2022-10-17T10:21:15;17.63;;;15.97;;
10469;SDS011;5282;47.052;15.458;2022-10-17T10:23:44;17.43;;;16.13;;
10469;SDS011;5282;47.052;15.458;2022-10-17T10:26:29;17.57;;;16.03;;
10469;SDS011;5282;47.052;15.458;2022-10-17T10:29:01;18.70;;;17.00;;
10469;SDS011;5282;47.052;15.458;2022-10-17T10:31:31;17.63;;;16.03;;
10469;SDS011;5282;47.052;15.458;2022-10-17T10:34:01;18.67;;;16.77;;
10469;SDS011;5282;47.052;15.458;2022-10-17T10:36:43;17.97;;;16.30;;
10469;SDS011;5282;47.052;15.458;2022-10-17T10:39:18;17.00;;;15.50;;
10469;SDS011;5282;47.052;15.458;2022-10-17T10:42:00;19.67;;;16.57;;
10469;SDS011;5282;47.052;15.458;2022-10-17T10:44:29;16.30;;;15.07;;
10469;SDS011;5282;47.052;15.458;2022-10-17T10:47:14;17.10;;;15.60;;
10469;SDS011;5282;47.052;15.458;2022-10-17T10:49:44;15.80;;;14.60;;
10469;SDS011;5282;47.052;15.458;2022-10-17T10:52:12;16.67;;;15.37;;
10469;SDS011;5282;47.052;15.458;2022-10-17T10:54:53;17.43;;;15.77;;
10469;SDS011;5282;47.052;15.458;2022-10-17T10:57:26;17.67;;;16.07;;
10469;SDS011;5282;47.052;15.458;2022-10-17T11:00:00;18.53;;;16.57;;
10469;SDS011;5282;47.052;15.458;2022-10-17T11:02:34;18.67;;;15.33;;
10469;SDS011;5282;47.052;15.458;2022-10-17T11:05:09;16.83;;;15.33;;
10469;SDS011;5282;47.052;15.458;2022-10-17T11:07:42;17.73;;;16.00;;
10469;SDS011;5282;47.052;15.458;2022-10-17T11:10:18;16.80;;;15.40;;
10469;SDS011;5282;47.052;15.458;2022-10-17T11:12:51;17.87;;;16.33;;
10469;SDS011;5282;47.052;15.458;2022-10-17T11:15:24;17.63;;;15.80;;
10469;SDS011;5282;47.052;15.458;2022-10-17T11:17:56;17.43;;;15.93;;
10469;SDS011;5282;47.052;15.458;2022-10-17T11:20:28;17.87;;;16.47;;
10469;SDS011;5282;47.052;15.458;2022-10-17T11:23:03;17.67;;;16.20;;
10469;SDS011;5282;47.052;15.458;2022-10-17T11:25:44;17.23;;;15.63;;
10469;SDS011;5282;47.052;15.458;2022-10-17T11:28:13;16.73;;;15.40;;
10469;SDS011;5282;47.052;15.458;2022-10-17T11:30:47;17.47;;;15.73;;
10469;SDS011;5282;47.052;15.458;2022-10-17T11:33:23;17.33;;;15.87;;
10469;SDS011;5282;47.052;15.458;2022-10-17T11:35:56;16.93;;;15.43;;
10469;SDS011;5282;47.052;15.458;2022-10-17T11:38:35;17.10;;;15.60;;
10469;SDS011;5282;47.052;15.458;2022-10-17T11:41:08;17.43;;;15.93;;
10469;SDS011;5282;47.052;15.458;2022-10-17T11:43:39;16.23;;;14.93;;
10469;SDS011;5282;47.052;15.458;2022-10-17T11:46:11;16.47;;;14.90;;
10469;SDS011;5282;47.052;15.458;2022-10-17T11:48:44;16.53;;;15.20;;
10469;SDS011;5282;47.052;15.458;2022-10-17T11:51:26;16.33;;;14.80;;
10469;SDS011;5282;47.052;15.458;2022-10-17T11:53:58;15.73;;;14.60;;
10469;SDS011;5282;47.052;15.458;2022-10-17T11:56:33;16.80;;;15.30;;
10469;SDS011;5282;47.052;15.458;2022-10-17T11:59:17;17.37;;;15.87;;
10469;SDS011;5282;47.052;15.458;2022-10-17T12:02:05;16.00;;;14.57;;
10469;SDS011;5282;47.052;15.458;2022-10-17T12:04:39;16.23;;;14.83;;
10469;SDS011;5282;47.052;15.458;2022-10-17T12:07:14;16.47;;;15.17;;
10469;SDS011;5282;47.052;15.458;2022-10-17T12:09:52;17.20;;;15.60;;
10469;SDS011;5282;47.052;15.458;2022-10-17T12:12:24;16.70;;;15.40;;
10469;SDS011;5282;47.052;15.458;2022-10-17T12:14:54;15.97;;;14.57;;
10469;SDS011;5282;47.052;15.458;2022-10-17T12:17:53;16.63;;;15.30;;
10469;SDS011;5282;47.052;15.458;2022-10-17T12:20:27;15.90;;;14.47;;
10469;SDS011;5282;47.052;15.458;2022-10-17T12:22:57;16.70;;;15.50;;
10469;SDS011;5282;47.052;15.458;2022-10-17T12:25:30;16.13;;;14.60;;
10469;SDS011;5282;47.052;15.458;2022-10-17T12:28:06;17.40;;;16.00;;
10469;SDS011;5282;47.052;15.458;2022-10-17T12:30:47;18.23;;;16.73;;
10469;SDS011;5282;47.052;15.458;2022-10-17T12:33:17;17.40;;;15.93;;
10469;SDS011;5282;47.052;15.458;2022-10-17T12:35:47;17.33;;;15.97;;
10469;SDS011;5282;47.052;15.458;2022-10-17T12:38:20;16.80;;;15.40;;
10469;SDS011;5282;47.052;15.458;2022-10-17T12:40:53;18.07;;;16.20;;
10469;SDS011;5282;47.052;15.458;2022-10-17T12:55:23;19.43;;;17.60;;
10469;SDS011;5282;47.052;15.458;2022-10-17T12:57:57;20.33;;;18.23;;
10469;SDS011;5282;47.052;15.458;2022-10-17T13:00:30;19.83;;;18.03;;
10469;SDS011;5282;47.052;15.458;2022-10-17T13:03:04;20.73;;;18.83;;
10469;SDS011;5282;47.052;15.458;2022-10-17T13:05:37;19.43;;;17.60;;
10469;SDS011;5282;47.052;15.458;2022-10-17T13:08:07;19.73;;;17.90;;
10469;SDS011;5282;47.052;15.458;2022-10-17T13:10:44;19.53;;;17.47;;
10469;SDS011;5282;47.052;15.458;2022-10-17T13:13:15;19.47;;;17.67;;
10469;SDS011;5282;47.052;15.458;2022-10-17T13:15:45;18.83;;;17.33;;
10469;SDS011;5282;47.052;15.458;2022-10-17T13:18:16;19.43;;;17.80;;
10469;SDS011;5282;47.052;15.458;2022-10-17T13:20:57;20.17;;;18.47;;
10469;SDS011;5282;47.052;15.458;2022-10-17T13:23:27;19.30;;;17.70;;
10469;SDS011;5282;47.052;15.458;2022-10-17T13:26:03;21.60;;;19.33;;
10469;SDS011;5282;47.052;15.458;2022-10-17T13:28:34;19.90;;;18.00;;
10469;SDS011;5282;47.052;15.458;2022-10-17T13:31:02;20.20;;;18.17;;
10469;SDS011;5282;47.052;15.458;2022-10-17T13:33:32;20.73;;;18.80;;
10469;SDS011;5282;47.052;15.458;2022-10-17T13:36:03;20.13;;;18.20;;
10469;SDS011;5282;47.052;15.458;2022-10-17T13:38:33;20.27;;;18.47;;
10469;SDS011;5282;47.052;15.458;2022-10-17T13:41:03;20.90;;;19.10;;
10469;SDS011;5282;47.052;15.458;2022-10-17T13:43:40;20.63;;;18.83;;
10469;SDS011;5282;47.052;15.458;2022-10-17T13:46:07;20.40;;;18.70;;
10469;SDS011;5282;47.052;15.458;2022-10-17T13:48:47;22.00;;;19.73;;
10469;SDS011;5282;47.052;15.458;2022-10-17T13:51:14;22.00;;;19.80;;
10469;SDS011;5282;47.052;15.458;2022-10-17T13:53:41;21.70;;;19.77;;
10469;SDS011;5282;47.052;15.458;2022-10-17T13:56:16;21.90;;;19.97;;
10469;SDS011;5282;47.052;15.458;2022-10-17T13:58:46;21.67;;;19.67;;
10469;SDS011;5282;47.052;15.458;2022-10-17T14:01:15;21.37;;;19.47;;
10469;SDS011;5282;47.052;15.458;2022-10-17T14:03:43;21.13;;;19.43;;
10469;SDS011;5282;47.052;15.458;2022-10-17T14:06:15;21.70;;;19.80;;
10469;SDS011;5282;47.052;15.458;2022-10-17T14:08:48;22.67;;;20.67;;
10469;SDS011;5282;47.052;15.458;2022-10-17T14:11:26;22.27;;;20.27;;
10469;SDS011;5282;47.052;15.458;2022-10-17T14:13:59;23.50;;;21.27;;
10469;SDS011;5282;47.052;15.458;2022-10-17T14:16:32;22.17;;;20.07;;
10469;SDS011;5282;47.052;15.458;2022-10-17T14:19:01;22.50;;;20.10;;
10469;SDS011;5282;47.052;15.458;2022-10-17T14:21:30;23.33;;;20.90;;
10469;SDS011;5282;47.052;15.458;2022-10-17T14:26:53;23.27;;;21.03;;
10469;SDS011;5282;47.052;15.458;2022-10-17T14:29:25;23.80;;;21.37;;
10469;SDS011;5282;47.052;15.458;2022-10-17T14:32:01;24.47;;;22.27;;
10469;SDS011;5282;47.052;15.458;2022-10-17T14:34:32;24.07;;;21.77;;
10469;SDS011;5282;47.052;15.458;2022-10-17T14:37:01;23.47;;;21.10;;
10469;SDS011;5282;47.052;15.458;2022-10-17T14:39:33;24.07;;;21.87;;
10469;SDS011;5282;47.052;15.458;2022-10-17T14:42:00;23.83;;;21.50;;
10469;SDS011;5282;47.052;15.458;2022-10-17T14:44:29;25.00;;;22.47;;
10469;SDS011;5282;47.052;15.458;2022-10-17T14:46:58;22.93;;;20.60;;
10469;SDS011;5282;47.052;15.458;2022-10-17T14:49:30;23.57;;;21.33;;
10469;SDS011;5282;47.052;15.458;2022-10-17T14:52:12;24.07;;;21.87;;
10469;SDS011;5282;47.052;15.458;2022-10-17T14:54:51;23.73;;;21.53;;
10469;SDS011;5282;47.052;15.458;2022-10-17T14:57:21;24.00;;;21.60;;
10469;SDS011;5282;47.052;15.458;2022-10-17T14:59:52;24.03;;;21.63;;